createdAt,value
2019-01-03T00:00:24.168Z,3.20
2019-01-03T00:03:29.626Z,2.70
2019-01-03T00:06:35.382Z,2.60
2019-01-03T00:10:01.395Z,3.53
2019-01-03T00:13:05.919Z,3.27
2019-01-03T00:16:15.777Z,3.17
2019-01-03T00:19:37.955Z,3.47
2019-01-03T00:22:43.571Z,3.47
2019-01-03T00:26:09.305Z,3.17
2019-01-03T00:29:34.289Z,2.70
2019-01-03T00:32:43.876Z,2.77
2019-01-03T00:36:00.434Z,2.50
2019-01-03T00:39:20.067Z,3.23
2019-01-03T00:42:24.492Z,2.40
2019-01-03T00:45:30.270Z,2.97
2019-01-03T00:48:35.947Z,2.67
2019-01-03T00:51:49.099Z,2.33
2019-01-03T00:54:56.144Z,2.77
2019-01-03T00:58:03.427Z,2.83
2019-01-03T01:01:18.291Z,2.67
2019-01-03T01:04:24.458Z,3.20
2019-01-03T01:07:31.800Z,2.20
2019-01-03T01:10:51.004Z,2.97
2019-01-03T01:14:13.331Z,3.07
2019-01-03T01:17:23.506Z,2.30
2019-01-03T01:20:33.745Z,3.03
2019-01-03T01:23:43.726Z,2.93
2019-01-03T01:26:54.246Z,3.20
2019-01-03T01:30:01.424Z,2.73
2019-01-03T01:33:06.723Z,2.87
2019-01-03T01:36:09.037Z,3.03
2019-01-03T01:39:15.027Z,2.93
2019-01-03T01:42:21.237Z,2.80
2019-01-03T01:45:27.350Z,2.97
2019-01-03T01:48:33.684Z,2.77
2019-01-03T01:51:50.688Z,2.90
2019-01-03T01:55:03.848Z,3.10
2019-01-03T01:58:15.393Z,2.40
2019-01-03T02:01:28.702Z,2.83
2019-01-03T02:04:35.768Z,3.37
2019-01-03T02:07:41.929Z,3.20
2019-01-03T02:11:01.349Z,3.00
2019-01-03T02:14:14.499Z,2.83
2019-01-03T02:17:22.508Z,3.13
2019-01-03T02:20:29.300Z,2.57
2019-01-03T02:23:35.906Z,3.13
2019-01-03T02:26:48.798Z,2.70
2019-01-03T02:29:55.048Z,3.43
2019-01-03T02:33:01.164Z,3.20
2019-01-03T02:36:25.611Z,3.10
2019-01-03T02:39:39.019Z,2.67
2019-01-03T02:43:01.635Z,3.17
2019-01-03T02:46:26.349Z,2.87
2019-01-03T02:49:48.556Z,2.10
2019-01-03T02:52:56.240Z,2.40
2019-01-03T02:56:02.616Z,2.90
2019-01-03T02:59:09.987Z,2.60
2019-01-03T03:02:16.106Z,2.23
2019-01-03T03:05:23.131Z,2.90
2019-01-03T03:08:35.603Z,3.40
2019-01-03T03:11:41.789Z,2.40
2019-01-03T03:14:55.446Z,2.47
2019-01-03T03:18:02.427Z,2.53
2019-01-03T03:21:28.041Z,3.57
2019-01-03T03:24:33.486Z,2.07
2019-01-03T03:27:40.449Z,2.53
2019-01-03T03:30:46.152Z,2.90
2019-01-03T03:33:54.174Z,2.77
2019-01-03T03:37:13.430Z,2.43
2019-01-03T03:40:19.533Z,2.27
2019-01-03T03:43:27.181Z,2.63
2019-01-03T03:46:46.499Z,2.90
2019-01-03T03:49:52.553Z,3.47
2019-01-03T03:52:59.025Z,3.20
2019-01-03T03:56:12.530Z,2.50
2019-01-03T03:59:20.088Z,2.50
2019-01-03T04:02:30.211Z,2.60
2019-01-03T04:05:40.838Z,2.40
2019-01-03T04:09:00.378Z,2.47
2019-01-03T04:12:16.825Z,2.67
2019-01-03T04:15:39.625Z,2.97
2019-01-03T04:18:45.033Z,2.70
2019-01-03T04:21:52.364Z,2.47
2019-01-03T04:24:58.796Z,2.60
2019-01-03T04:28:18.439Z,2.37
2019-01-03T04:31:18.830Z,2.90
2019-01-03T04:34:23.491Z,2.97
2019-01-03T04:37:30.879Z,3.50
2019-01-03T04:40:37.189Z,3.00
2019-01-03T04:44:03.010Z,3.07
2019-01-03T04:47:14.929Z,3.93
2019-01-03T04:50:32.706Z,2.60
2019-01-03T04:53:40.346Z,2.87
2019-01-03T04:56:56.473Z,3.10
2019-01-03T05:00:03.815Z,3.07
2019-01-03T05:03:13.960Z,2.90
2019-01-03T05:06:24.718Z,3.20
2019-01-03T05:09:31.071Z,3.07
2019-01-03T05:12:33.918Z,3.03
2019-01-03T05:15:39.912Z,3.10
2019-01-03T05:18:59.538Z,2.87
2019-01-03T05:22:05.024Z,2.80
2019-01-03T05:25:21.640Z,2.60
2019-01-03T05:28:37.891Z,3.10
2019-01-03T05:31:43.541Z,3.57
2019-01-03T05:34:56.540Z,3.20
2019-01-03T05:37:59.566Z,3.07
2019-01-03T05:41:05.119Z,3.77
2019-01-03T05:44:12.037Z,3.40
2019-01-03T05:47:35.444Z,2.83
2019-01-03T05:51:00.969Z,3.80
2019-01-03T05:54:06.437Z,2.93
2019-01-03T05:57:12.626Z,3.80
2019-01-03T06:00:18.994Z,3.30
2019-01-03T06:03:25.198Z,3.17
2019-01-03T06:06:31.139Z,2.90
2019-01-03T06:09:47.333Z,2.90
2019-01-03T06:12:52.947Z,2.57
2019-01-03T06:16:09.317Z,3.40
2019-01-03T06:19:15.188Z,2.83
2019-01-03T06:22:21.618Z,3.27
2019-01-03T06:25:27.569Z,3.20
2019-01-03T06:28:34.726Z,3.23
2019-01-03T06:32:00.362Z,3.80
2019-01-03T06:35:16.384Z,3.87
2019-01-03T06:38:15.922Z,3.67
2019-01-03T06:41:15.092Z,3.40
2019-01-03T06:44:21.261Z,3.70
2019-01-03T06:47:27.595Z,3.37
2019-01-03T06:50:34.731Z,3.53
2019-01-03T06:53:42.341Z,3.50
2019-01-03T06:56:52.849Z,3.20
2019-01-03T06:59:57.139Z,3.30
2019-01-03T07:03:19.532Z,3.73
2019-01-03T07:06:29.874Z,3.90
2019-01-03T07:09:35.618Z,4.00
2019-01-03T07:12:42.742Z,4.03
2019-01-03T07:16:07.777Z,3.73
2019-01-03T07:19:24.805Z,3.37
2019-01-03T07:22:35.167Z,4.10
2019-01-03T07:25:45.560Z,4.43
2019-01-03T07:28:55.793Z,4.00
2019-01-03T07:32:02.036Z,3.93
2019-01-03T07:35:12.408Z,4.00
2019-01-03T07:38:22.454Z,4.47
2019-01-03T07:41:29.783Z,4.10
2019-01-03T07:44:40.110Z,4.03
2019-01-03T07:47:35.822Z,3.87
2019-01-03T07:51:01.599Z,3.80
2019-01-03T07:54:09.195Z,4.43
2019-01-03T07:57:16.247Z,3.60
2019-01-03T08:00:22.721Z,5.27
2019-01-03T08:03:48.045Z,5.07
2019-01-03T08:07:07.370Z,4.03
2019-01-03T08:10:13.502Z,4.13
2019-01-03T08:13:35.846Z,4.03
2019-01-03T08:16:58.361Z,4.30
2019-01-03T08:19:56.685Z,4.30
2019-01-03T08:23:03.043Z,4.30
2019-01-03T08:26:19.569Z,3.47
2019-01-03T08:29:37.420Z,3.73
2019-01-03T08:32:43.377Z,4.47
2019-01-03T08:36:00.112Z,3.73
2019-01-03T08:39:05.877Z,3.67
2019-01-03T08:42:12.046Z,4.53
2019-01-03T08:45:28.166Z,5.53
2019-01-03T08:48:53.914Z,6.00
2019-01-03T08:52:07.301Z,5.30
2019-01-03T08:55:13.008Z,5.80
2019-01-03T08:58:29.183Z,6.03
2019-01-03T09:01:41.976Z,5.77
2019-01-03T09:04:48.028Z,6.00
2019-01-03T09:07:57.003Z,5.77
2019-01-03T09:11:04.117Z,6.03
2019-01-03T09:14:10.477Z,6.03
2019-01-03T09:17:10.298Z,6.00
2019-01-03T09:20:15.952Z,5.30
2019-01-03T09:23:22.130Z,5.67
2019-01-03T09:26:27.865Z,5.43
2019-01-03T09:29:50.117Z,5.70
2019-01-03T09:32:56.278Z,5.20
2019-01-03T09:36:01.061Z,4.67
2019-01-03T09:39:13.878Z,3.57
2019-01-03T09:42:32.661Z,3.70
2019-01-03T09:45:20.878Z,3.63
2019-01-03T09:48:09.060Z,3.27
2019-01-03T09:50:57.436Z,3.20
2019-01-03T09:53:45.498Z,3.30
2019-01-03T09:56:33.830Z,3.40
2019-01-03T09:59:21.989Z,3.57
2019-01-03T10:02:10.270Z,3.20
2019-01-03T10:04:58.720Z,3.50
2019-01-03T10:07:47.164Z,3.47
2019-01-03T10:10:35.353Z,2.83
2019-01-03T10:13:23.655Z,2.87
2019-01-03T10:16:11.984Z,2.97
2019-01-03T10:19:00.121Z,2.70
2019-01-03T10:21:48.585Z,2.50
2019-01-03T10:24:37.181Z,3.03
2019-01-03T10:27:25.439Z,2.90
2019-01-03T10:30:13.541Z,2.93
2019-01-03T10:33:01.947Z,2.83
2019-01-03T10:35:50.090Z,3.27
2019-01-03T10:38:38.232Z,2.00
2019-01-03T10:41:26.236Z,3.00
2019-01-03T10:44:14.219Z,2.57
2019-01-03T10:47:02.829Z,2.63
2019-01-03T10:49:50.963Z,2.47
2019-01-03T10:52:39.005Z,2.10
2019-01-03T10:55:27.447Z,2.17
2019-01-03T10:58:15.542Z,2.73
2019-01-03T11:01:03.744Z,3.03
2019-01-03T11:03:51.992Z,3.20
2019-01-03T11:06:40.225Z,2.80
2019-01-03T11:09:28.659Z,2.97
2019-01-03T11:12:16.960Z,3.20
2019-01-03T11:15:05.764Z,2.73
2019-01-03T11:17:54.238Z,2.63
2019-01-03T11:20:42.368Z,2.67
2019-01-03T11:23:30.648Z,2.47
2019-01-03T11:26:19.048Z,2.60
2019-01-03T11:29:07.055Z,2.57
2019-01-03T11:31:55.112Z,2.57
2019-01-03T11:34:43.352Z,2.13
2019-01-03T11:37:31.878Z,2.50
2019-01-03T11:40:20.172Z,1.90
2019-01-03T11:43:08.566Z,2.33
2019-01-03T11:45:56.688Z,2.47
2019-01-03T11:48:44.703Z,2.57
2019-01-03T11:51:33.112Z,3.63
2019-01-03T11:54:21.138Z,3.83
2019-01-03T11:57:09.255Z,3.83
2019-01-03T11:59:57.705Z,3.40
2019-01-03T12:02:46.091Z,3.87
2019-01-03T12:05:33.947Z,4.07
2019-01-03T12:08:22.074Z,3.73
2019-01-03T12:11:10.166Z,4.40
2019-01-03T12:13:58.533Z,3.87
2019-01-03T12:16:46.631Z,3.77
2019-01-03T12:19:34.619Z,3.00
2019-01-03T12:22:23.031Z,3.77
2019-01-03T12:25:11.575Z,2.87
2019-01-03T12:27:59.608Z,3.07
2019-01-03T12:30:47.781Z,3.23
2019-01-03T12:33:35.837Z,2.67
2019-01-03T12:36:24.362Z,3.17
2019-01-03T12:39:12.214Z,3.23
2019-01-03T12:42:00.255Z,3.10
2019-01-03T12:44:48.241Z,3.60
2019-01-03T12:47:36.250Z,5.47
2019-01-03T12:50:24.732Z,5.87
2019-01-03T12:53:12.792Z,5.57
2019-01-03T12:56:01.166Z,5.40
2019-01-03T12:58:49.630Z,5.43
2019-01-03T13:01:38.253Z,5.27
2019-01-03T13:04:26.338Z,5.33
2019-01-03T13:07:16.614Z,5.50
2019-01-03T13:10:04.476Z,4.53
2019-01-03T13:12:52.833Z,5.00
2019-01-03T13:15:41.169Z,4.57
2019-01-03T13:18:29.144Z,5.77
2019-01-03T13:21:17.884Z,5.30
2019-01-03T13:24:06.405Z,4.67
2019-01-03T13:26:54.711Z,5.10
2019-01-03T13:29:43.067Z,4.30
2019-01-03T13:32:31.484Z,4.50
2019-01-03T13:35:20.976Z,4.30
2019-01-03T13:38:09.041Z,4.10
2019-01-03T13:40:57.568Z,3.60
2019-01-03T13:43:45.980Z,4.47
2019-01-03T13:46:34.413Z,4.17
2019-01-03T13:49:22.583Z,4.13
2019-01-03T13:52:10.516Z,4.40
2019-01-03T13:54:59.097Z,4.30
2019-01-03T13:57:47.342Z,3.87
2019-01-03T14:00:35.430Z,4.30
2019-01-03T14:03:23.597Z,3.23
2019-01-03T14:06:11.883Z,3.80
2019-01-03T14:09:00.301Z,3.70
2019-01-03T14:11:48.404Z,4.13
2019-01-03T14:14:36.548Z,3.77
2019-01-03T14:17:25.121Z,4.23
2019-01-03T14:20:14.863Z,3.37
2019-01-03T14:23:03.107Z,3.83
2019-01-03T14:25:51.481Z,3.60
2019-01-03T14:28:39.637Z,4.43
2019-01-03T14:31:28.198Z,3.37
2019-01-03T14:34:16.297Z,3.63
2019-01-03T14:37:04.395Z,3.27
2019-01-03T14:39:52.472Z,3.53
2019-01-03T14:42:40.744Z,3.37
2019-01-03T14:45:29.059Z,3.07
2019-01-03T14:48:17.437Z,3.70
2019-01-03T14:51:05.549Z,3.80
2019-01-03T14:53:53.802Z,3.30
2019-01-03T14:56:42.214Z,3.03
2019-01-03T14:59:32.123Z,3.70
2019-01-03T15:02:20.475Z,4.97
2019-01-03T15:05:13.776Z,3.73
2019-01-03T15:07:58.030Z,3.77
2019-01-03T15:10:46.636Z,3.67
2019-01-03T15:13:35.059Z,3.87
2019-01-03T15:16:23.487Z,3.43
2019-01-03T15:19:11.373Z,3.23
2019-01-03T15:21:59.698Z,3.83
2019-01-03T15:24:47.961Z,3.53
2019-01-03T15:27:36.334Z,4.00
2019-01-03T15:30:24.696Z,3.47
2019-01-03T15:33:12.898Z,3.83
2019-01-03T15:36:01.087Z,4.33
2019-01-03T15:38:49.003Z,2.90
2019-01-03T15:41:37.144Z,3.33
2019-01-03T15:44:25.480Z,4.03
2019-01-03T15:47:13.940Z,3.47
2019-01-03T15:50:02.051Z,3.33
2019-01-03T15:52:50.548Z,3.70
2019-01-03T15:55:38.952Z,3.77
2019-01-03T15:58:27.825Z,4.03
2019-01-03T16:01:15.866Z,3.60
2019-01-03T16:04:03.886Z,3.70
2019-01-03T16:06:51.953Z,4.27
2019-01-03T16:09:40.360Z,4.70
2019-01-03T16:12:28.575Z,5.00
2019-01-03T16:15:16.843Z,4.77
2019-01-03T16:18:04.981Z,4.27
2019-01-03T16:20:52.969Z,4.50
2019-01-03T16:23:41.037Z,4.70
2019-01-03T16:26:29.656Z,4.57
2019-01-03T16:29:17.740Z,5.03
2019-01-03T16:32:06.172Z,4.10
2019-01-03T16:34:54.460Z,4.90
2019-01-03T16:37:42.726Z,5.10
2019-01-03T16:40:31.327Z,5.37
2019-01-03T16:43:19.540Z,4.93
2019-01-03T16:46:07.657Z,5.03
2019-01-03T16:48:55.823Z,4.60
2019-01-03T16:51:43.827Z,4.50
2019-01-03T16:54:32.543Z,5.57
2019-01-03T16:57:20.590Z,6.17
2019-01-03T17:00:10.292Z,4.83
2019-01-03T17:02:58.792Z,4.20
2019-01-03T17:05:46.936Z,3.97
2019-01-03T17:08:35.054Z,4.07
2019-01-03T17:11:23.287Z,4.67
2019-01-03T17:14:11.515Z,4.00
2019-01-03T17:17:00.746Z,3.30
2019-01-03T17:19:49.098Z,3.13
2019-01-03T17:22:37.039Z,3.03
2019-01-03T17:25:25.185Z,3.27
2019-01-03T17:28:13.526Z,3.13
2019-01-03T17:31:01.665Z,3.73
2019-01-03T17:33:49.839Z,5.63
2019-01-03T17:36:38.234Z,4.70
2019-01-03T17:39:26.284Z,4.33
2019-01-03T17:42:14.382Z,3.87
2019-01-03T17:45:02.420Z,3.43
2019-01-03T17:47:50.842Z,3.53
2019-01-03T17:50:39.041Z,2.90
2019-01-03T17:53:27.174Z,3.10
2019-01-03T17:56:15.321Z,3.60
2019-01-03T17:59:03.745Z,3.57
2019-01-03T18:01:51.947Z,3.90
2019-01-03T18:04:40.045Z,3.60
2019-01-03T18:07:28.229Z,2.77
2019-01-03T18:10:16.510Z,2.60
2019-01-03T18:13:05.174Z,2.77
2019-01-03T18:15:53.270Z,2.17
2019-01-03T18:18:41.381Z,2.90
2019-01-03T18:21:29.713Z,2.83
2019-01-03T18:24:17.619Z,3.10
2019-01-03T18:27:06.044Z,3.07
2019-01-03T18:29:53.923Z,2.63
2019-01-03T18:32:42.066Z,2.90
2019-01-03T18:35:30.286Z,2.47
2019-01-03T18:38:18.895Z,2.97
2019-01-03T18:41:07.205Z,3.07
2019-01-03T18:43:55.247Z,3.23
2019-01-03T18:46:43.602Z,3.10
2019-01-03T18:49:32.279Z,3.17
2019-01-03T18:52:20.272Z,2.80
2019-01-03T18:55:09.143Z,2.50
2019-01-03T18:57:57.193Z,2.80
2019-01-03T19:00:45.488Z,2.80
2019-01-03T19:03:33.688Z,2.43
2019-01-03T19:06:22.024Z,2.63
2019-01-03T19:09:10.467Z,2.90
2019-01-03T19:11:58.628Z,2.93
2019-01-03T19:14:46.938Z,2.33
2019-01-03T19:17:35.125Z,3.10
2019-01-03T19:20:23.146Z,3.20
2019-01-03T19:23:11.420Z,3.17
2019-01-03T19:26:00.666Z,3.47
2019-01-03T19:28:49.187Z,3.23
2019-01-03T19:31:37.288Z,3.70
2019-01-03T19:34:25.462Z,3.40
2019-01-03T19:37:13.528Z,3.60
2019-01-03T19:40:02.004Z,3.40
2019-01-03T19:42:50.184Z,2.83
2019-01-03T19:45:38.261Z,2.90
2019-01-03T19:48:26.445Z,2.77
2019-01-03T19:51:15.103Z,2.60
2019-01-03T19:54:03.454Z,2.20
2019-01-03T19:56:51.537Z,2.73
2019-01-03T19:59:39.892Z,2.27
2019-01-03T20:02:31.134Z,2.20
2019-01-03T20:05:19.132Z,2.73
2019-01-03T20:08:07.163Z,2.60
2019-01-03T20:10:55.544Z,2.50
2019-01-03T20:13:46.463Z,2.93
2019-01-03T20:16:34.961Z,2.27
2019-01-03T20:19:22.951Z,2.40
2019-01-03T20:22:10.834Z,2.63
2019-01-03T20:24:59.226Z,2.20
2019-01-03T20:27:47.824Z,2.53
2019-01-03T20:30:36.053Z,2.90
2019-01-03T20:33:24.533Z,2.70
2019-01-03T20:36:12.614Z,2.67
2019-01-03T20:39:00.667Z,3.13
2019-01-03T20:41:48.926Z,2.73
2019-01-03T20:44:37.535Z,3.10
2019-01-03T20:47:27.641Z,2.87
2019-01-03T20:50:15.765Z,3.17
2019-01-03T20:53:04.266Z,8.33
2019-01-03T20:55:52.396Z,3.27
2019-01-03T20:58:41.885Z,2.60
2019-01-03T21:01:29.913Z,3.00
2019-01-03T21:04:26.965Z,3.00
2019-01-03T21:07:16.239Z,3.17
2019-01-03T21:10:04.463Z,3.20
2019-01-03T21:12:52.526Z,2.80
2019-01-03T21:15:40.970Z,3.10
2019-01-03T21:18:29.567Z,3.07
2019-01-03T21:21:17.746Z,3.40
2019-01-03T21:24:05.927Z,3.37
2019-01-03T21:26:54.131Z,3.40
2019-01-03T21:29:42.503Z,3.43
2019-01-03T21:32:32.525Z,3.33
2019-01-03T21:35:22.889Z,3.70
2019-01-03T21:38:11.105Z,3.63
2019-01-03T21:40:59.489Z,2.93
2019-01-03T21:43:52.514Z,3.20
2019-01-03T21:46:40.614Z,3.33
2019-01-03T21:49:29.066Z,3.03
2019-01-03T21:52:17.519Z,3.30
2019-01-03T21:55:06.169Z,2.90
2019-01-03T21:57:55.131Z,3.10
2019-01-03T22:00:43.358Z,3.33
2019-01-03T22:03:31.371Z,3.37
2019-01-03T22:06:19.531Z,3.17
2019-01-03T22:09:07.643Z,3.40
2019-01-03T22:11:55.860Z,3.30
2019-01-03T22:14:44.393Z,3.27
2019-01-03T22:17:32.642Z,3.10
2019-01-03T22:20:20.682Z,2.93
2019-01-03T22:23:08.904Z,3.33
2019-01-03T22:25:57.024Z,3.00
2019-01-03T22:28:45.330Z,3.10
2019-01-03T22:31:33.111Z,3.07
2019-01-03T22:34:21.467Z,3.00
2019-01-03T22:37:09.646Z,3.00
2019-01-03T22:39:58.189Z,3.20
2019-01-03T22:42:46.417Z,3.37
2019-01-03T22:45:34.885Z,3.20
2019-01-03T22:48:22.954Z,3.63
2019-01-03T22:51:11.492Z,3.00
2019-01-03T22:53:59.814Z,3.20
2019-01-03T22:56:47.617Z,3.20
2019-01-03T22:59:35.734Z,3.40
2019-01-03T23:02:23.999Z,3.70
2019-01-03T23:05:12.039Z,3.40
2019-01-03T23:07:59.826Z,3.20
2019-01-03T23:10:48.233Z,3.27
2019-01-03T23:13:36.484Z,3.70
2019-01-03T23:16:24.357Z,4.47
2019-01-03T23:19:12.506Z,3.83
2019-01-03T23:22:00.594Z,3.80
2019-01-03T23:24:48.761Z,4.07
2019-01-03T23:27:37.054Z,4.40
2019-01-03T23:30:25.058Z,4.13
2019-01-03T23:33:13.176Z,4.70
2019-01-03T23:36:01.278Z,6.30
2019-01-03T23:38:49.773Z,5.10
2019-01-03T23:41:37.945Z,5.50
2019-01-03T23:44:25.995Z,5.53
2019-01-03T23:47:14.093Z,5.20
2019-01-03T23:50:02.598Z,5.40
2019-01-03T23:52:50.748Z,5.40
2019-01-03T23:55:50.812Z,5.27
2019-01-03T23:58:39.258Z,6.17
